AirNav   Everest Fuels
 
 280 users online  

MI46 Heliflite Heliport
South Lyon, Michigan, USA

GOING TO SOUTH LYON?


FAA INFORMATION EFFECTIVE 18 JUNE 2020

Location

FAA Identifier: MI46
Lat/Long: 42-29-14.1210N 083-39-06.7820W
42-29.235350N 083-39.113033W
42.4872558,-83.6518839
(estimated)
Elevation: 920 ft. / 280 m (estimated)
Variation: 05W (1990)
From city: 2 miles NE of SOUTH LYON, MI
Time zone: UTC -4 (UTC -5 during Standard Time)
Zip code: 48178

Heliport Operations

Heliport use: Private use. Permission required prior to landing
Activation date: 05/1992
Control tower: no
ARTCC: CLEVELAND CENTER
FSS: LANSING FLIGHT SERVICE STATION
Attendance: IREG
Wind indicator: yes
Segmented circle: no

Heliport Communications

WX ASOS at PTK (15 nm NE): 125.025 (248-886-8551)
WX ASOS at YIP (16 nm S): PHONE 734-961-6843
WX ASOS at ARB (16 nm S): 134.55 (734-668-7173)
WX AWOS-3 at OZW (17 nm NW): 118.875 (517-546-4450)

Nearby radio navigation aids

VOR radial/distance  VOR name  Freq  Var
SVMr334/5.4SALEM VORTAC114.3003W
DXOr328/20.7DETROIT VOR/DME113.4006W
CRLr345/27.7CARLETON VOR/DME115.7003W
FNTr178/29.1FLINT VORTAC116.9006W

 
NDB name  Hdg/Dist  Freq  Var  ID
TECUMSEH027/29.123906WTCU - -.-. ..-
GROSSE ILE323/32.041907WRYS .-. -.-- ...

Heliport Services

Runway Information

Helipad H1

Dimensions: 100 x 100 ft. / 30 x 30 m
Surface: turf
Traffic pattern: leftleft

Heliport Ownership and Management from official FAA records

Ownership: Privately-owned
Owner: SCOTT C MRDEZA
27500 PONTIAC TRAIL
SOUTH LYON, MI 48178
Phone 313-486-3855
Manager: SCOTT C MRDEZA
27500 PONTIAC TRAIL
SOUTH LYON, MI 48178
Phone 313-486-3855

Additional Remarks

A52-H1 25 FT BLDG & PLINE 200 FT W; 50 FT TREES 300 FT E; 15 FT TREES 200 FT W.
FOR CD CTC DETROIT APCH AT 800-499-8181.

Instrument Procedures

There are no published instrument procedures at MI46.

Some nearby airports with instrument procedures:

Y47 - Oakland Southwest Airport (2 nm NE)
1D2 - Canton-Plymouth-Mettetal Airport (12 nm SE)
KPTK - Oakland County International Airport (15 nm NE)
KYIP - Willow Run Airport (16 nm S)
KARB - Ann Arbor Municipal Airport (16 nm S)
KOZW - Livingston County Spencer J Hardy Airport (17 nm NW)
9G2 - Price's Airport (20 nm N)
 
Loc | Ops | Rwys | IFR | FBO | Links
Com | Nav | Svcs | Stats | Notes
Area around MI46 (Heliflite Heliport)
 
Road maps at: MapQuest Bing Google
 
Aerial photo
No photo
 
Sectional chart

 
Airport distance calculator
Flying to Heliflite Heliport? Find the distance to fly.

From to MI46

Sunrise and sunset
Times for 15-Jul-2020
 Local
(UTC-4)
 Zulu
(UTC)
Morning civil twilight05:3909:39
Sunrise06:1310:13
Sunset21:0901:09
Evening civil twilight21:4201:42

Current date and time
Zulu (UTC)  15-Jul-2020 09:25:33
Local (UTC-4)  15-Jul-2020 05:25:33
 
METAR
KPTK 
15nm NE 
150853Z AUTO 17003KT 10SM CLR 21/17 A3008 RMK AO2 SLP179 T02060172 57005 $
KOZW 
16nm NW 
150855Z AUTO 13004KT 10SM CLR 19/18 A3008 RMK AO2 T01910175
KYIP 
16nm S 
150853Z 00000KT 9SM CLR 19/17 A3009 RMK AO2 SLP181 T01890167 58004
KARB 
17nm S 
734-668-7173
150904Z AUTO 00000KT 4SM BR CLR 16/15 A3007 RMK AO2 T01560150 $
KDTW 
21nm SE 
150853Z 00000KT 10SM FEW065 BKN100 OVC220 21/17 A3009 RMK AO2 SLP185 T02110172 58002
KVLL 
21nm E 
150855Z AUTO 00000KT 10SM CLR 21/18 A3010 RMK AO2 T02060178
KDET 
29nm E 
150853Z 16004KT 10SM CLR 21/17 A3009 RMK AO2 SLP185 T02110167 58005
KFNT 
29nm N 
150853Z AUTO 17005KT 10SM CLR 19/17 A3006 RMK AO2 SLP176 T01940172 56009 $
TAF
KPTK 
15nm NE 
150520Z 1506/1606 16003KT P6SM BKN200 FM151400 19007KT P6SM SCT250 FM152100 17007KT P6SM SCT050 OVC200
KYIP 
16nm S 
150520Z 1506/1606 15003KT P6SM BKN200 FM151400 19007KT P6SM SCT250 FM152100 14007KT P6SM OVC200
NOTAMs
Click for the latest NOTAMs
NOTAMs are issued by the DoD/FAA and will open in a separate window not controlled by AirNav.

 

 
 

Would you like to see your business listed on this page?

 If your business provides an interesting product or service to pilots, flight crews, aircraft, or users of the Heliflite Heliport, you should consider listing it here.  To start the listing process, click on the button below
 
Add a business
 

Other Pages about Heliflite Heliport

Update a link
 
Copyright © AirNav, LLC. All rights reserved. Privacy Policy  Contact